Time;durP1;ratioP1;P1;durP2;ratioP2;P2;SDS_P1;SDS_P2;PMS_P1;PMS_P2;Temp;Humidity;BMP_temperature;BMP_pressure;BME280_temperature;BME280_humidity;BME280_pressure;Samples;Min_cycle;Max_cycle;Signal;HPM_P1;HPM_P2
2023/01/08 00:00:55;;;;;;;3.90;1.17;;;;;;;;;;5116135;27;20043;-69
2023/01/08 00:03:22;;;;;;;3.17;1.40;;;;;;;;;;5126815;27;20134;-69
2023/01/08 00:05:49;;;;;;;3.47;1.10;;;;;;;;;;5118867;27;20048;-69
2023/01/08 00:08:15;;;;;;;11.38;1.90;;;;;;;;;;5116713;27;20076;-71
2023/01/08 00:10:42;;;;;;;1.75;0.82;;;;;;;;;;5107594;27;20056;-70
2023/01/08 00:13:08;;;;;;;5.70;1.85;;;;;;;;;;5105356;27;20048;-69
2023/01/08 00:15:35;;;;;;;1.02;0.85;;;;;;;;;;5105322;27;20044;-70
2023/01/08 00:18:01;;;;;;;5.35;1.30;;;;;;;;;;5109047;27;20056;-70
2023/01/08 00:20:27;;;;;;;7.60;1.05;;;;;;;;;;5105657;27;20596;-70
2023/01/08 00:22:54;;;;;;;3.15;1.02;;;;;;;;;;5111548;27;20052;-69
2023/01/08 00:25:20;;;;;;;6.53;1.35;;;;;;;;;;5125371;27;20103;-69
2023/01/08 00:27:46;;;;;;;2.47;0.88;;;;;;;;;;5122655;27;20040;-71
2023/01/08 00:30:13;;;;;;;2.10;0.90;;;;;;;;;;5115088;27;20133;-72
2023/01/08 00:32:39;;;;;;;2.90;1.00;;;;;;;;;;5122427;27;20090;-72
2023/01/08 00:35:06;;;;;;;6.70;1.95;;;;;;;;;;5114319;27;20044;-72
2023/01/08 00:37:32;;;;;;;6.63;1.60;;;;;;;;;;5105120;27;20048;-73
2023/01/08 00:39:58;;;;;;;3.75;1.10;;;;;;;;;;5108528;27;20044;-71
2023/01/08 00:42:24;;;;;;;6.90;1.38;;;;;;;;;;5104612;27;20565;-71
2023/01/08 00:44:51;;;;;;;2.72;1.38;;;;;;;;;;5111187;27;20048;-71
2023/01/08 00:47:17;;;;;;;2.90;1.52;;;;;;;;;;5104863;27;20055;-71
2023/01/08 00:49:43;;;;;;;1.77;1.08;;;;;;;;;;5115072;27;20047;-71
2023/01/08 00:52:10;;;;;;;5.85;1.63;;;;;;;;;;5124958;27;20062;-71
2023/01/08 00:54:37;;;;;;;3.88;1.30;;;;;;;;;;5116128;27;20047;-71
2023/01/08 00:57:03;;;;;;;9.13;1.52;;;;;;;;;;5109828;27;20537;-71
2023/01/08 00:59:29;;;;;;;4.60;1.58;;;;;;;;;;5105086;27;20518;-72
2023/01/08 01:01:56;;;;;;;5.75;1.58;;;;;;;;;;5104528;27;20052;-72
2023/01/08 01:04:24;;;;;;;3.53;1.40;;;;;;;;;;5110656;27;20048;-71
2023/01/08 01:06:50;;;;;;;7.30;2.45;;;;;;;;;;5123115;27;20112;-71
2023/01/08 01:09:17;;;;;;;8.63;2.47;;;;;;;;;;5116481;27;20524;-71
2023/01/08 01:11:43;;;;;;;4.93;1.67;;;;;;;;;;5104544;27;20060;-71
2023/01/08 01:14:09;;;;;;;5.10;1.67;;;;;;;;;;5117397;27;20058;-71
2023/01/08 01:16:36;;;;;;;5.82;1.98;;;;;;;;;;5125754;27;20055;-71
2023/01/08 01:19:02;;;;;;;7.15;2.55;;;;;;;;;;5115417;27;20463;-71
2023/01/08 01:21:29;;;;;;;6.63;2.28;;;;;;;;;;5120786;27;20066;-71
2023/01/08 01:23:57;;;;;;;4.63;2.25;;;;;;;;;;5123559;27;20047;-71
2023/01/08 01:26:24;;;;;;;5.70;2.65;;;;;;;;;;5117776;27;20104;-72
2023/01/08 01:28:51;;;;;;;7.10;2.45;;;;;;;;;;5104542;27;20502;-71
2023/01/08 01:31:17;;;;;;;4.72;2.42;;;;;;;;;;5103434;27;20526;-71
2023/01/08 01:33:44;;;;;;;6.22;2.40;;;;;;;;;;5105093;27;20048;-71
2023/01/08 01:36:11;;;;;;;7.35;2.30;;;;;;;;;;5087151;28;20877;-71
2023/01/08 01:38:41;;;;;;;4.60;2.30;;;;;;;;;;5114417;27;20051;-72
2023/01/08 01:41:17;;;;;;;4.13;1.85;;;;;;;;;;5124286;27;20097;-72
2023/01/08 01:43:43;;;;;;;5.53;1.90;;;;;;;;;;5114656;27;20048;-71
2023/01/08 01:46:36;;;;;;;5.53;2.28;;;;;;;;;;5101038;27;20483;-71
2023/01/08 01:49:08;;;;;;;3.30;1.52;;;;;;;;;;5114005;27;20597;-72
2023/01/08 01:51:35;;;;;;;3.42;1.52;;;;;;;;;;5123408;27;20104;-72
2023/01/08 01:54:03;;;;;;;3.17;1.63;;;;;;;;;;5114035;27;20044;-72
2023/01/08 01:56:29;;;;;;;6.75;2.28;;;;;;;;;;5117398;27;20105;-71
2023/01/08 01:58:56;;;;;;;4.10;1.42;;;;;;;;;;5122988;27;20056;-71
2023/01/08 02:01:23;;;;;;;2.17;1.33;;;;;;;;;;5112036;27;20514;-71
2023/01/08 02:03:49;;;;;;;4.57;1.23;;;;;;;;;;5120207;27;20056;-71
2023/01/08 02:06:22;;;;;;;2.25;1.08;;;;;;;;;;5117970;27;20054;-70
2023/01/08 02:08:48;;;;;;;4.55;1.55;;;;;;;;;;5131116;27;20082;-71
2023/01/08 02:11:20;;;;;;;4.05;1.30;;;;;;;;;;5107715;27;20052;-71
2023/01/08 02:13:54;;;;;;;2.30;1.40;;;;;;;;;;5114631;27;20062;-71
2023/01/08 02:16:37;;;;;;;6.03;1.40;;;;;;;;;;5108618;27;20086;-72
2023/01/08 02:19:12;;;;;;;2.70;1.40;;;;;;;;;;5118529;27;20066;-72
2023/01/08 02:22:02;;;;;;;2.28;1.30;;;;;;;;;;5110070;27;20104;-72
2023/01/08 02:24:38;;;;;;;3.75;1.73;;;;;;;;;;5102569;27;20553;-72
2023/01/08 02:27:07;;;;;;;1.77;1.20;;;;;;;;;;5103398;28;20541;-71
2023/01/08 02:29:33;;;;;;;5.20;1.60;;;;;;;;;;5114032;27;20050;-71
2023/01/08 02:32:00;;;;;;;4.53;1.10;;;;;;;;;;5115650;27;20180;-73
2023/01/08 02:34:27;;;;;;;3.65;1.33;;;;;;;;;;5118209;27;20737;-72
2023/01/08 02:36:54;;;;;;;3.90;0.95;;;;;;;;;;5119998;27;20055;-72
2023/01/08 02:39:27;;;;;;;1.67;0.85;;;;;;;;;;5113677;27;20139;-71
2023/01/08 02:41:59;;;;;;;3.53;1.33;;;;;;;;;;5097460;28;20056;-71
2023/01/08 02:44:32;;;;;;;2.17;1.10;;;;;;;;;;5116956;27;20056;-71
2023/01/08 02:46:59;;;;;;;1.30;1.02;;;;;;;;;;5114679;27;20059;-73
2023/01/08 02:49:29;;;;;;;2.78;1.05;;;;;;;;;;5101919;27;20052;-72
2023/01/08 02:51:56;;;;;;;3.58;1.60;;;;;;;;;;5104560;27;20044;-73
2023/01/08 02:54:25;;;;;;;2.38;1.25;;;;;;;;;;5109475;27;20139;-71
2023/01/08 02:56:59;;;;;;;2.25;1.08;;;;;;;;;;5103486;27;20047;-72
2023/01/08 02:59:26;;;;;;;1.98;1.10;;;;;;;;;;5104951;27;20048;-72
2023/01/08 03:01:52;;;;;;;3.22;0.93;;;;;;;;;;5103803;27;20047;-72
2023/01/08 03:04:21;;;;;;;3.70;1.33;;;;;;;;;;5104215;27;20052;-73
2023/01/08 03:06:48;;;;;;;3.80;1.10;;;;;;;;;;5108556;27;20102;-72
2023/01/08 03:09:15;;;;;;;1.83;0.88;;;;;;;;;;5109363;27;20126;-71
2023/01/08 03:11:50;;;;;;;2.20;1.17;;;;;;;;;;5106371;27;20564;-71
2023/01/08 03:14:22;;;;;;;1.65;0.95;;;;;;;;;;5122829;27;20498;-71
2023/01/08 03:16:55;;;;;;;5.75;1.40;;;;;;;;;;5108995;27;20064;-71
2023/01/08 03:19:31;;;;;;;5.63;1.50;;;;;;;;;;5106697;27;20848;-71
2023/01/08 03:21:59;;;;;;;3.03;1.40;;;;;;;;;;5105050;27;20044;-72
2023/01/08 03:24:27;;;;;;;3.00;1.73;;;;;;;;;;5122287;27;20059;-72
2023/01/08 03:26:58;;;;;;;2.53;1.48;;;;;;;;;;5106443;27;20052;-73
2023/01/08 03:29:25;;;;;;;4.68;1.67;;;;;;;;;;5110214;27;20571;-72
2023/01/08 03:31:53;;;;;;;4.30;1.50;;;;;;;;;;5126398;27;20052;-72
2023/01/08 03:34:19;;;;;;;3.38;1.20;;;;;;;;;;5117967;27;20441;-73
2023/01/08 03:36:47;;;;;;;2.03;1.83;;;;;;;;;;5107128;27;20051;-71
2023/01/08 03:39:19;;;;;;;2.92;1.20;;;;;;;;;;5125091;27;20058;-72
2023/01/08 03:41:47;;;;;;;3.00;1.70;;;;;;;;;;5125662;27;20071;-72
2023/01/08 03:44:13;;;;;;;4.90;2.35;;;;;;;;;;5106324;27;20048;-72
2023/01/08 03:46:43;;;;;;;2.13;1.77;;;;;;;;;;5111361;27;20054;-73
2023/01/08 03:49:10;;;;;;;3.40;1.98;;;;;;;;;;5120016;27;20139;-72
2023/01/08 03:51:40;;;;;;;8.70;2.45;;;;;;;;;;5090399;28;20889;-72
2023/01/08 03:54:10;;;;;;;4.90;1.92;;;;;;;;;;5106112;27;20139;-72
2023/01/08 03:56:36;;;;;;;3.17;1.90;;;;;;;;;;5122232;27;20048;-73
2023/01/08 03:59:03;;;;;;;5.38;2.20;;;;;;;;;;5110316;27;20062;-72
2023/01/08 04:01:29;;;;;;;3.15;2.35;;;;;;;;;;5114042;27;20147;-72
2023/01/08 04:03:56;;;;;;;3.33;2.63;;;;;;;;;;5125980;27;20040;-72
2023/01/08 04:06:22;;;;;;;3.15;2.60;;;;;;;;;;5118352;27;20054;-72
2023/01/08 04:08:49;;;;;;;4.70;2.67;;;;;;;;;;5126212;27;20086;-71
2023/01/08 04:11:15;;;;;;;3.97;2.70;;;;;;;;;;5126297;27;20144;-72
2023/01/08 04:13:42;;;;;;;8.45;2.50;;;;;;;;;;5118049;27;20913;-72
2023/01/08 04:16:08;;;;;;;3.35;2.20;;;;;;;;;;5117905;27;20044;-72
2023/01/08 04:18:35;;;;;;;2.53;1.90;;;;;;;;;;5103242;27;20087;-71
2023/01/08 04:21:01;;;;;;;6.38;2.20;;;;;;;;;;5105117;27;20055;-73
2023/01/08 04:23:27;;;;;;;6.97;2.45;;;;;;;;;;5105468;27;20044;-72
2023/01/08 04:25:54;;;;;;;5.10;2.15;;;;;;;;;;5112612;27;20493;-72
2023/01/08 04:28:20;;;;;;;5.25;1.95;;;;;;;;;;5121080;27;20052;-72
2023/01/08 04:30:46;;;;;;;7.70;2.63;;;;;;;;;;5104936;28;20555;-73
2023/01/08 04:33:13;;;;;;;7.22;2.67;;;;;;;;;;5105002;27;20044;-73
2023/01/08 04:35:39;;;;;;;6.65;2.33;;;;;;;;;;5116593;27;20159;-73
2023/01/08 04:38:06;;;;;;;4.47;2.47;;;;;;;;;;5105372;27;20058;-72
2023/01/08 04:40:32;;;;;;;4.80;1.83;;;;;;;;;;5105013;27;20051;-74
2023/01/08 04:42:59;;;;;;;3.95;1.92;;;;;;;;;;5110348;27;20044;-72
2023/01/08 04:45:25;;;;;;;8.40;2.20;;;;;;;;;;5115738;27;20044;-72
2023/01/08 04:47:55;;;;;;;4.30;2.00;;;;;;;;;;5105484;28;20882;-73
2023/01/08 04:50:22;;;;;;;7.80;2.95;;;;;;;;;;5105446;27;20083;-73
2023/01/08 04:52:48;;;;;;;7.45;2.33;;;;;;;;;;5105024;27;20150;-73
2023/01/08 04:55:14;;;;;;;5.90;2.20;;;;;;;;;;5118954;27;20063;-71
2023/01/08 04:57:41;;;;;;;3.67;1.85;;;;;;;;;;5122563;27;20052;-73
2023/01/08 05:00:07;;;;;;;5.88;1.92;;;;;;;;;;5123262;27;20055;-72
2023/01/08 05:02:34;;;;;;;5.10;1.60;;;;;;;;;;5108776;27;20059;-72
2023/01/08 05:05:01;;;;;;;6.57;1.50;;;;;;;;;;5115743;27;20247;-73
2023/01/08 05:07:27;;;;;;;6.80;1.63;;;;;;;;;;5125671;27;20585;-72
2023/01/08 05:09:53;;;;;;;2.72;1.35;;;;;;;;;;5114808;27;20581;-72
2023/01/08 05:12:20;;;;;;;2.92;1.42;;;;;;;;;;5111901;27;20044;-72
2023/01/08 05:14:46;;;;;;;1.33;1.13;;;;;;;;;;5124015;27;20058;-73
2023/01/08 05:17:12;;;;;;;2.83;1.13;;;;;;;;;;5105442;27;20506;-72
2023/01/08 05:19:38;;;;;;;3.20;1.20;;;;;;;;;;5105854;27;20063;-72
2023/01/08 05:22:05;;;;;;;2.22;1.00;;;;;;;;;;5104947;27;20150;-72
2023/01/08 05:24:31;;;;;;;3.22;1.20;;;;;;;;;;5102993;27;20044;-73
2023/01/08 05:26:57;;;;;;;3.50;1.50;;;;;;;;;;5104153;27;20048;-73
2023/01/08 05:29:24;;;;;;;4.07;1.30;;;;;;;;;;5120082;27;20040;-73
2023/01/08 05:31:50;;;;;;;3.75;0.95;;;;;;;;;;5119398;27;20066;-73
2023/01/08 05:34:16;;;;;;;4.68;1.42;;;;;;;;;;5117273;27;20059;-73
2023/01/08 05:36:43;;;;;;;3.08;1.33;;;;;;;;;;5105037;27;20402;-72
2023/01/08 05:39:10;;;;;;;3.65;1.08;;;;;;;;;;5120131;27;20059;-73
2023/01/08 05:41:37;;;;;;;5.03;0.95;;;;;;;;;;5088795;27;20048;-72
2023/01/08 05:44:03;;;;;;;7.18;1.35;;;;;;;;;;5117708;27;20059;-73
2023/01/08 05:46:29;;;;;;;2.47;1.10;;;;;;;;;;5103380;27;20040;-72
2023/01/08 05:48:56;;;;;;;7.47;1.75;;;;;;;;;;5116765;27;20056;-73
2023/01/08 05:51:22;;;;;;;3.90;1.27;;;;;;;;;;5104593;28;20087;-73
2023/01/08 05:53:49;;;;;;;5.45;1.75;;;;;;;;;;5107593;27;20526;-73
2023/01/08 05:56:15;;;;;;;3.22;1.30;;;;;;;;;;5124545;27;20051;-71
2023/01/08 05:58:41;;;;;;;12.30;1.95;;;;;;;;;;5116563;27;20052;-73
2023/01/08 06:01:09;;;;;;;3.97;1.40;;;;;;;;;;5109640;27;20052;-73
2023/01/08 06:03:36;;;;;;;5.32;1.38;;;;;;;;;;5109113;27;20079;-73
2023/01/08 06:06:04;;;;;;;5.03;1.52;;;;;;;;;;5117965;27;20052;-73
2023/01/08 06:08:30;;;;;;;4.22;1.45;;;;;;;;;;5103690;27;20052;-72
2023/01/08 06:10:58;;;;;;;5.60;1.75;;;;;;;;;;5103695;27;20052;-71
2023/01/08 06:13:24;;;;;;;7.82;1.42;;;;;;;;;;5103706;27;20559;-72
2023/01/08 06:15:50;;;;;;;3.50;1.38;;;;;;;;;;5084960;28;20059;-72
2023/01/08 06:18:17;;;;;;;5.70;1.50;;;;;;;;;;5104075;27;20048;-73
2023/01/08 06:20:43;;;;;;;5.70;1.33;;;;;;;;;;5104834;27;20048;-72
2023/01/08 06:23:10;;;;;;;3.58;1.40;;;;;;;;;;5103076;27;20547;-72
2023/01/08 06:25:36;;;;;;;3.13;1.85;;;;;;;;;;5102893;27;20052;-72
2023/01/08 06:28:03;;;;;;;5.68;1.98;;;;;;;;;;5109568;27;20073;-71
2023/01/08 06:30:29;;;;;;;7.32;1.98;;;;;;;;;;5112034;27;20059;-73
2023/01/08 06:32:56;;;;;;;6.05;1.40;;;;;;;;;;5103664;28;20118;-72
2023/01/08 06:35:23;;;;;;;5.57;1.50;;;;;;;;;;5108061;27;20047;-73
2023/01/08 06:37:49;;;;;;;4.25;1.63;;;;;;;;;;5104726;27;20086;-71
2023/01/08 06:40:15;;;;;;;5.30;1.90;;;;;;;;;;5110577;27;20044;-72
2023/01/08 06:42:43;;;;;;;8.90;2.65;;;;;;;;;;5103208;27;20052;-73
2023/01/08 06:45:10;;;;;;;2.47;1.52;;;;;;;;;;5103090;27;20529;-72
2023/01/08 06:47:36;;;;;;;9.32;2.08;;;;;;;;;;5103290;27;20056;-72
2023/01/08 06:50:04;;;;;;;7.65;1.83;;;;;;;;;;5103707;27;20541;-71
2023/01/08 06:52:31;;;;;;;5.28;1.33;;;;;;;;;;5095489;27;20058;-72
2023/01/08 06:54:57;;;;;;;5.20;1.50;;;;;;;;;;5109865;27;20490;-73
2023/01/08 06:57:24;;;;;;;4.18;1.63;;;;;;;;;;5113732;27;20896;-73
2023/01/08 06:59:50;;;;;;;2.78;1.40;;;;;;;;;;5109043;27;20048;-72
2023/01/08 07:02:17;;;;;;;4.10;1.50;;;;;;;;;;5104107;27;20056;-73
2023/01/08 07:04:44;;;;;;;7.55;1.85;;;;;;;;;;5115589;27;20529;-73
2023/01/08 07:07:12;;;;;;;3.60;1.90;;;;;;;;;;5110798;27;20404;-71
2023/01/08 07:09:42;;;;;;;4.85;1.42;;;;;;;;;;5102896;27;20060;-72
2023/01/08 07:12:12;;;;;;;4.30;1.55;;;;;;;;;;5108404;27;20044;-73
2023/01/08 07:14:39;;;;;;;6.45;1.75;;;;;;;;;;5106944;27;20251;-72
2023/01/08 07:17:06;;;;;;;6.25;1.50;;;;;;;;;;5114123;27;20055;-73
2023/01/08 07:19:32;;;;;;;6.22;2.03;;;;;;;;;;5110977;27;20556;-72
2023/01/08 07:21:59;;;;;;;4.93;2.20;;;;;;;;;;5105155;27;20082;-74
2023/01/08 07:24:25;;;;;;;3.83;1.52;;;;;;;;;;5120673;27;20063;-73
2023/01/08 07:26:51;;;;;;;8.80;2.20;;;;;;;;;;5123418;27;20079;-73
2023/01/08 07:29:18;;;;;;;8.82;1.90;;;;;;;;;;5120573;27;20058;-73
2023/01/08 07:31:44;;;;;;;5.97;1.30;;;;;;;;;;5113880;27;20056;-74
2023/01/08 07:34:11;;;;;;;4.60;1.40;;;;;;;;;;5102876;27;20047;-72
2023/01/08 07:36:40;;;;;;;8.98;2.05;;;;;;;;;;5103408;27;20513;-72
2023/01/08 07:39:07;;;;;;;2.75;1.38;;;;;;;;;;5092059;28;20056;-73
2023/01/08 07:41:33;;;;;;;5.45;1.38;;;;;;;;;;5102113;27;20066;-74
2023/01/08 07:43:59;;;;;;;4.22;1.55;;;;;;;;;;5107527;27;20132;-72
2023/01/08 07:46:26;;;;;;;2.33;1.73;;;;;;;;;;5111285;27;20052;-73
2023/01/08 07:48:52;;;;;;;3.40;1.58;;;;;;;;;;5110604;27;20048;-73
2023/01/08 07:51:19;;;;;;;2.88;1.20;;;;;;;;;;5104604;27;20048;-74
2023/01/08 07:53:45;;;;;;;5.03;1.27;;;;;;;;;;5104175;27;20079;-72
2023/01/08 07:56:11;;;;;;;3.28;1.20;;;;;;;;;;5118468;27;20047;-74
2023/01/08 07:58:38;;;;;;;5.93;1.58;;;;;;;;;;5125553;27;20052;-73
2023/01/08 08:01:06;;;;;;;6.38;2.00;;;;;;;;;;5107887;27;20559;-74
2023/01/08 08:03:33;;;;;;;5.97;1.50;;;;;;;;;;5112739;27;20063;-72
2023/01/08 08:06:00;;;;;;;8.60;1.77;;;;;;;;;;5125448;27;20052;-72
2023/01/08 08:08:26;;;;;;;4.78;1.65;;;;;;;;;;5132837;27;20142;-73
2023/01/08 08:10:52;;;;;;;5.65;1.30;;;;;;;;;;5135630;27;20146;-72
2023/01/08 08:13:19;;;;;;;6.05;2.10;;;;;;;;;;5108390;27;20055;-74
2023/01/08 08:15:45;;;;;;;5.65;1.27;;;;;;;;;;5115287;27;20047;-72
2023/01/08 08:18:11;;;;;;;3.40;1.20;;;;;;;;;;5113787;27;20084;-73
2023/01/08 08:20:38;;;;;;;3.60;1.33;;;;;;;;;;5120093;27;20044;-73
2023/01/08 08:23:05;;;;;;;3.97;1.88;;;;;;;;;;5106999;27;20054;-75
2023/01/08 08:25:32;;;;;;;8.20;2.03;;;;;;;;;;5117258;27;20055;-74
2023/01/08 08:27:59;;;;;;;3.90;1.80;;;;;;;;;;5123526;27;20398;-74
2023/01/08 08:30:26;;;;;;;6.13;2.15;;;;;;;;;;5104753;27;20103;-74
2023/01/08 08:32:53;;;;;;;5.90;2.55;;;;;;;;;;5115140;27;20090;-74
2023/01/08 08:35:20;;;;;;;13.43;1.60;;;;;;;;;;5123921;27;20048;-73
2023/01/08 08:37:47;;;;;;;7.35;1.98;;;;;;;;;;5114867;27;20056;-74
2023/01/08 08:40:13;;;;;;;7.45;1.80;;;;;;;;;;5105098;27;20063;-74
2023/01/08 08:42:40;;;;;;;7.25;1.27;;;;;;;;;;5106028;28;20134;-74
2023/01/08 08:45:07;;;;;;;5.38;1.70;;;;;;;;;;5120533;27;20127;-73
2023/01/08 08:47:33;;;;;;;7.47;1.63;;;;;;;;;;5125693;27;20587;-74
2023/01/08 08:50:00;;;;;;;5.45;1.60;;;;;;;;;;5125913;27;20055;-74
2023/01/08 08:52:28;;;;;;;8.07;1.35;;;;;;;;;;5107781;27;20063;-74
2023/01/08 08:54:54;;;;;;;6.80;1.40;;;;;;;;;;5104493;27;20462;-74
2023/01/08 08:57:25;;;;;;;4.18;1.48;;;;;;;;;;5102835;27;20058;-75
2023/01/08 08:59:51;;;;;;;9.15;1.75;;;;;;;;;;5123691;27;20105;-74
2023/01/08 09:02:18;;;;;;;5.65;1.27;;;;;;;;;;5129668;27;20495;-74
2023/01/08 09:04:45;;;;;;;6.10;2.08;;;;;;;;;;5122243;27;20139;-73
2023/01/08 09:07:11;;;;;;;5.57;1.55;;;;;;;;;;5125698;27;20061;-74
2023/01/08 09:09:37;;;;;;;6.18;1.67;;;;;;;;;;5105136;27;20054;-75
2023/01/08 09:12:04;;;;;;;7.40;1.58;;;;;;;;;;5096986;27;20044;-73
2023/01/08 09:14:30;;;;;;;7.88;2.03;;;;;;;;;;5104465;28;20413;-74
2023/01/08 09:16:56;;;;;;;6.47;1.40;;;;;;;;;;5113000;27;20059;-74
2023/01/08 09:19:23;;;;;;;9.02;1.65;;;;;;;;;;5118119;27;20058;-74
2023/01/08 09:21:49;;;;;;;6.75;1.60;;;;;;;;;;5106492;27;20553;-73
2023/01/08 09:24:16;;;;;;;8.77;1.63;;;;;;;;;;5116738;27;20485;-74
2023/01/08 09:26:42;;;;;;;12.95;2.00;;;;;;;;;;5115392;27;20524;-74
2023/01/08 09:29:08;;;;;;;8.27;1.70;;;;;;;;;;5128403;27;20044;-73
2023/01/08 09:31:35;;;;;;;5.38;1.80;;;;;;;;;;5105344;27;20533;-70
2023/01/08 09:34:01;;;;;;;7.30;1.63;;;;;;;;;;5107311;27;20052;-70
2023/01/08 09:36:28;;;;;;;7.55;1.50;;;;;;;;;;5103789;27;20054;-72
2023/01/08 09:38:54;;;;;;;5.15;1.50;;;;;;;;;;5104455;28;20048;-71
2023/01/08 09:41:29;;;;;;;13.25;2.00;;;;;;;;;;5104232;28;20055;-71
2023/01/08 09:43:56;;;;;;;6.93;1.73;;;;;;;;;;5112836;27;20070;-69
2023/01/08 09:46:25;;;;;;;11.93;2.45;;;;;;;;;;5121040;27;20659;-70
2023/01/08 09:48:52;;;;;;;9.95;1.67;;;;;;;;;;5121797;27;20048;-69
2023/01/08 09:51:19;;;;;;;8.10;1.60;;;;;;;;;;5085808;28;20623;-70
2023/01/08 09:53:49;;;;;;;7.50;2.15;;;;;;;;;;5107094;27;20048;-70
2023/01/08 09:56:17;;;;;;;8.38;2.17;;;;;;;;;;5110067;27;20524;-69
2023/01/08 09:58:50;;;;;;;11.80;2.17;;;;;;;;;;5139268;27;20557;-70
2023/01/08 10:01:19;;;;;;;6.72;1.80;;;;;;;;;;5105639;27;20062;-71
2023/01/08 10:03:48;;;;;;;5.55;1.65;;;;;;;;;;5091820;27;20048;-70
2023/01/08 10:06:15;;;;;;;5.88;1.58;;;;;;;;;;5117983;27;20516;-70
2023/01/08 10:08:41;;;;;;;10.27;1.95;;;;;;;;;;5111284;27;20095;-69
2023/01/08 10:11:08;;;;;;;4.72;1.55;;;;;;;;;;5107587;27;20465;-69
2023/01/08 10:13:36;;;;;;;6.50;1.80;;;;;;;;;;5115550;27;20056;-70
2023/01/08 10:16:07;;;;;;;7.05;1.65;;;;;;;;;;5118124;27;20607;-69
2023/01/08 10:18:34;;;;;;;10.43;3.10;;;;;;;;;;5111328;27;20082;-71
2023/01/08 10:21:01;;;;;;;11.07;2.17;;;;;;;;;;5134470;27;20509;-70
2023/01/08 10:23:27;;;;;;;6.45;1.90;;;;;;;;;;5114532;27;20935;-69
2023/01/08 10:25:58;;;;;;;7.30;1.92;;;;;;;;;;5122136;27;20552;-70
2023/01/08 10:28:25;;;;;;;11.25;2.80;;;;;;;;;;5122242;27;20568;-69
2023/01/08 10:30:52;;;;;;;13.60;2.47;;;;;;;;;;5113157;27;20523;-70
2023/01/08 10:33:28;;;;;;;6.47;1.80;;;;;;;;;;5121401;27;20044;-70
2023/01/08 10:35:57;;;;;;;8.68;1.85;;;;;;;;;;5109485;27;20448;-69
2023/01/08 10:38:26;;;;;;;5.38;1.60;;;;;;;;;;5118017;27;20052;-71
2023/01/08 10:40:54;;;;;;;6.40;1.85;;;;;;;;;;5123184;27;20344;-69
2023/01/08 10:43:23;;;;;;;10.60;1.98;;;;;;;;;;5121221;27;20398;-71
2023/01/08 10:45:57;;;;;;;17.13;2.13;;;;;;;;;;5115519;27;20044;-71
2023/01/08 10:48:28;;;;;;;5.32;1.70;;;;;;;;;;5110854;27;20055;-73
2023/01/08 10:51:03;;;;;;;5.78;1.45;;;;;;;;;;5104154;27;20146;-71
2023/01/08 10:53:32;;;;;;;5.43;2.10;;;;;;;;;;5119971;27;20139;-71
2023/01/08 10:56:00;;;;;;;5.90;1.75;;;;;;;;;;5107172;27;20055;-75
2023/01/08 10:58:27;;;;;;;8.27;2.65;;;;;;;;;;5122552;27;20047;-69
2023/01/08 11:00:53;;;;;;;8.02;1.73;;;;;;;;;;5100267;22;20390;-72
2023/01/08 11:03:25;;;;;;;9.70;2.08;;;;;;;;;;5060880;28;20599;-71
2023/01/08 11:05:51;;;;;;;11.40;2.13;;;;;;;;;;5080179;28;20053;-71
2023/01/08 11:08:19;;;;;;;6.05;1.63;;;;;;;;;;5077796;28;20467;-72
2023/01/08 11:10:55;;;;;;;12.13;2.17;;;;;;;;;;5078412;28;20080;-72
2023/01/08 11:13:23;;;;;;;11.75;1.90;;;;;;;;;;5080137;28;20505;-73
2023/01/08 11:15:58;;;;;;;6.57;1.77;;;;;;;;;;5078429;28;20055;-73
2023/01/08 11:18:25;;;;;;;6.97;1.88;;;;;;;;;;5080971;28;20099;-71
2023/01/08 11:20:52;;;;;;;4.93;1.50;;;;;;;;;;5080440;28;20047;-71
2023/01/08 11:23:21;;;;;;;5.30;1.50;;;;;;;;;;5081204;28;20483;-70
2023/01/08 11:25:58;;;;;;;8.77;1.83;;;;;;;;;;5080470;28;20053;-70
2023/01/08 11:28:28;;;;;;;3.92;1.35;;;;;;;;;;5082958;28;20063;-71
2023/01/08 11:30:58;;;;;;;2.67;1.20;;;;;;;;;;5085327;28;20631;-71
2023/01/08 11:33:29;;;;;;;2.67;0.90;;;;;;;;;;5083068;28;21379;-70
2023/01/08 11:35:59;;;;;;;6.65;1.80;;;;;;;;;;5067608;28;20546;-69
2023/01/08 11:38:25;;;;;;;8.05;1.88;;;;;;;;;;5080373;28;20068;-72
2023/01/08 11:40:57;;;;;;;5.82;1.33;;;;;;;;;;5084488;28;20053;-69
2023/01/08 11:43:35;;;;;;;4.90;1.20;;;;;;;;;;5088320;28;20080;-71
2023/01/08 11:46:21;;;;;;;4.03;1.42;;;;;;;;;;5083433;28;20053;-69
2023/01/08 11:48:56;;;;;;;5.63;1.40;;;;;;;;;;5080192;28;20049;-71
2023/01/08 11:51:22;;;;;;;;;;;;;;;;;;5082541;28;20103;-71
2023/01/08 11:53:49;;;;;;;;;;;;;;;;;;5080341;28;47183;-71
2023/01/08 11:56:24;;;;;;;3.45;1.20;;;;;;;;;;5089820;28;43636;-69
2023/01/08 11:58:59;;;;;;;4.50;1.63;;;;;;;;;;5076745;28;20060;-67
2023/01/08 12:01:25;;;;;;;5.35;1.55;;;;;;;;;;5093700;28;20542;-70
2023/01/08 12:04:09;;;;;;;7.35;1.40;;;;;;;;;;5081272;28;20076;-72
2023/01/08 12:06:46;;;;;;;7.82;1.83;;;;;;;;;;5081736;28;20060;-70
2023/01/08 12:09:31;;;;;;;4.25;1.38;;;;;;;;;;5081766;28;20079;-69
2023/01/08 12:12:02;;;;;;;5.13;1.30;;;;;;;;;;5084428;28;20561;-68
2023/01/08 12:14:37;;;;;;;12.80;2.08;;;;;;;;;;5066216;28;20508;-72
2023/01/08 12:17:13;;;;;;;3.33;1.48;;;;;;;;;;5081731;28;20064;-72
2023/01/08 12:19:41;;;;;;;4.75;1.63;;;;;;;;;;5083406;28;20119;-68
2023/01/08 12:22:43;;;;;;;3.60;1.15;;;;;;;;;;5084522;28;20328;-69
2023/01/08 12:25:15;;;;;;;4.57;1.60;;;;;;;;;;5018844;28;20171;-70
2023/01/08 12:27:44;;;;;;;5.38;1.35;;;;;;;;;;5020675;28;20046;-71
2023/01/08 12:30:30;;;;;;;9.98;1.65;;;;;;;;;;5020624;28;20583;-72
2023/01/08 12:33:10;;;;;;;4.13;1.40;;;;;;;;;;5019784;28;20053;-72
2023/01/08 12:35:39;;;;;;;4.15;1.55;;;;;;;;;;5020838;28;20053;-70
2023/01/08 12:38:16;;;;;;;4.45;1.77;;;;;;;;;;5020371;28;20142;-73
2023/01/08 12:40:43;;;;;;;3.65;1.23;;;;;;;;;;5019102;28;20504;-71
2023/01/08 12:43:14;;;;;;;3.63;1.90;;;;;;;;;;5021976;28;20046;-71
2023/01/08 12:45:44;;;;;;;4.18;1.40;;;;;;;;;;5020607;28;20053;-71
2023/01/08 12:48:19;;;;;;;3.50;1.15;;;;;;;;;;5021289;28;20065;-72
2023/01/08 12:50:46;;;;;;;;;;;;;;;;;;5019287;28;20345;-71
2023/01/08 12:53:21;;;;;;;5.53;1.60;;;;;;;;;;5020115;28;45249;-69
2023/01/08 12:55:54;;;;;;;2.80;1.05;;;;;;;;;;5019188;28;20069;-74
2023/01/08 12:58:29;;;;;;;7.72;1.58;;;;;;;;;;5009770;28;20054;-71
2023/01/08 13:01:06;;;;;;;3.00;1.40;;;;;;;;;;5083150;28;20063;-73
2023/01/08 13:03:32;;;;;;;4.13;1.60;;;;;;;;;;5083520;28;20121;-72
2023/01/08 13:06:13;;;;;;;5.53;2.30;;;;;;;;;;5081339;28;20103;-72
2023/01/08 13:08:41;;;;;;;2.38;1.42;;;;;;;;;;5083746;28;20511;-71
2023/01/08 13:11:07;;;;;;;2.80;1.17;;;;;;;;;;5084475;28;20060;-73
2023/01/08 13:13:35;;;;;;;5.25;2.25;;;;;;;;;;5083322;28;20053;-71
2023/01/08 13:16:12;;;;;;;4.93;2.03;;;;;;;;;;5085808;28;20052;-70
2023/01/08 13:18:39;;;;;;;2.47;0.98;;;;;;;;;;5069307;28;20080;-73
2023/01/08 13:21:08;;;;;;;3.20;1.48;;;;;;;;;;5083376;28;20056;-73
2023/01/08 13:23:35;;;;;;;2.95;1.38;;;;;;;;;;5083278;28;20045;-69
2023/01/08 13:26:03;;;;;;;2.30;1.20;;;;;;;;;;5083172;28;20053;-71
2023/01/08 13:28:36;;;;;;;3.80;1.30;;;;;;;;;;5083673;28;20063;-71
2023/01/08 13:31:07;;;;;;;2.60;1.13;;;;;;;;;;5084547;28;20049;-73
2023/01/08 13:33:33;;;;;;;3.10;1.38;;;;;;;;;;5081826;28;20078;-72
2023/01/08 13:36:12;;;;;;;2.55;1.00;;;;;;;;;;5081657;28;20053;-72
2023/01/08 13:38:39;;;;;;;2.05;1.20;;;;;;;;;;5082198;28;20053;-70
2023/01/08 13:41:23;;;;;;;2.25;1.10;;;;;;;;;;5081223;28;20049;-70
2023/01/08 13:43:51;;;;;;;4.45;1.38;;;;;;;;;;5081280;28;20056;-71
2023/01/08 13:46:18;;;;;;;2.28;0.90;;;;;;;;;;5074660;28;20499;-72
2023/01/08 13:48:51;;;;;;;3.95;1.00;;;;;;;;;;5082822;28;20053;-71
2023/01/08 13:51:40;;;;;;;4.93;1.40;;;;;;;;;;5082059;28;20443;-72
2023/01/08 13:54:15;;;;;;;6.72;1.25;;;;;;;;;;5082928;28;20462;-73
2023/01/08 13:56:43;;;;;;;5.47;1.15;;;;;;;;;;5078514;28;20429;-73
2023/01/08 13:59:33;;;;;;;2.88;0.88;;;;;;;;;;5081022;28;20048;-72
2023/01/08 14:02:00;;;;;;;2.90;1.00;;;;;;;;;;5075433;28;20061;-69
2023/01/08 14:04:27;;;;;;;3.20;1.25;;;;;;;;;;5082213;28;20064;-69
2023/01/08 14:07:03;;;;;;;4.65;1.15;;;;;;;;;;5082566;28;20557;-72
2023/01/08 14:09:30;;;;;;;5.30;1.30;;;;;;;;;;5081101;28;20517;-73
2023/01/08 14:11:59;;;;;;;1.63;0.80;;;;;;;;;;5064517;28;20141;-70
2023/01/08 14:14:25;;;;;;;6.22;1.25;;;;;;;;;;5080698;28;20052;-70
2023/01/08 14:16:52;;;;;;;3.15;0.70;;;;;;;;;;5081671;28;20052;-67
2023/01/08 14:19:23;;;;;;;1.63;0.70;;;;;;;;;;5077675;28;20048;-72
2023/01/08 14:21:50;;;;;;;2.45;1.00;;;;;;;;;;5080237;28;20056;-77
2023/01/08 14:24:18;;;;;;;10.07;1.33;;;;;;;;;;5056146;28;20087;-71
2023/01/08 14:26:50;;;;;;;2.35;1.05;;;;;;;;;;5079353;28;20063;-75
2023/01/08 14:29:19;;;;;;;4.57;1.10;;;;;;;;;;5082258;28;20053;-75
2023/01/08 14:31:46;;;;;;;5.30;1.00;;;;;;;;;;5080349;28;20056;-75
2023/01/08 14:34:13;;;;;;;3.25;1.02;;;;;;;;;;5082760;28;20041;-73
2023/01/08 14:36:41;;;;;;;2.63;1.13;;;;;;;;;;5079681;28;20502;-77
2023/01/08 14:39:11;;;;;;;4.28;1.00;;;;;;;;;;5074629;28;20538;-71
2023/01/08 14:44:25;;;;;;;6.60;1.15;;;;;;;;;;5074516;28;20518;-73
2023/01/08 14:47:03;;;;;;;4.68;1.10;;;;;;;;;;5081905;28;20053;-75
2023/01/08 14:49:33;;;;;;;2.45;0.95;;;;;;;;;;5080125;28;20502;-74
2023/01/08 14:52:00;;;;;;;3.03;0.80;;;;;;;;;;5079084;28;20152;-69
2023/01/08 14:54:29;;;;;;;5.13;1.90;;;;;;;;;;5083616;28;20052;-69